Time;durP1;ratioP1;P1;durP2;ratioP2;P2;SDS_P1;SDS_P2;PMS_P1;PMS_P2;Temp;Humidity;BMP_temperature;BMP_pressure;BME280_temperature;BME280_humidity;BME280_pressure;Samples;Min_cycle;Max_cycle;Signal;HPM_P1;HPM_P2
2023/07/15 00:00:50;;;;;;;;;;;;;;;25.59;43.05;100364.44;4836527;29;114725;-74
2023/07/15 00:03:20;;;;;;;;;;;;;;;25.59;42.67;100366.31;4836522;29;113708;-75
2023/07/15 00:05:49;;;;;;;;;;;;;;;25.60;42.91;100362.59;4849950;28;123396;-74
2023/07/15 00:08:16;;;;;;;;;;;;;;;25.58;42.87;100367.34;4836413;29;124048;-75
2023/07/15 00:10:44;;;;;;;;;;;;;;;25.58;42.85;100375.47;4835427;29;114992;-75
2023/07/15 00:13:12;;;;;;;;;;;;;;;25.57;42.94;100365.66;4836912;29;115051;-74
2023/07/15 00:15:40;;;;;;;;;;;;;;;25.56;42.61;100369.38;4836066;29;123901;-75
2023/07/15 00:18:09;;;;;;;;;;;;;;;25.55;42.44;100373.13;4850684;29;123623;-74
2023/07/15 00:20:36;;;;;;;;;;;;;;;25.55;42.69;100373.13;4851483;28;115345;-74
2023/07/15 00:23:33;;;;;;;;;;;;;;;25.53;42.65;100364.34;4835636;29;112912;-74
2023/07/15 00:26:00;;;;;;;;;;;;;;;25.52;42.85;100357.22;4838378;29;125340;-74
2023/07/15 00:28:26;;;;;;;;;;;;;;;25.49;42.56;100357.59;4836911;29;123944;-74
2023/07/15 00:30:55;;;;;;;;;;;;;;;25.48;42.89;100361.31;4836931;29;114835;-74
2023/07/15 00:33:22;;;;;;;;;;;;;;;25.47;42.48;100354.19;4850728;28;113912;-74
2023/07/15 00:35:49;;;;;;;;;;;;;;;25.44;42.37;100353.53;4836522;29;124288;-74
2023/07/15 00:38:16;;;;;;;;;;;;;;;25.43;42.45;100359.97;4836109;29;124220;-74
2023/07/15 00:40:44;;;;;;;;;;;;;;;25.42;42.44;100352.84;4834850;29;115282;-74
2023/07/15 00:43:30;;;;;;;;;;;;;;;25.40;42.54;100349.47;4850080;28;113016;-74
2023/07/15 00:46:28;;;;;;;;;;;;;;;25.39;42.40;100358.66;4858693;28;123815;-74
2023/07/15 00:49:04;;;;;;;;;;;;;;;25.36;42.38;100356.28;4802617;29;122248;-74
2023/07/15 00:51:33;;;;;;;;;;;;;;;25.37;42.61;100355.28;4850519;28;114082;-74
2023/07/15 00:54:00;;;;;;;;;;;;;;;25.37;42.56;100358.00;4851289;28;113090;-74
2023/07/15 00:56:31;;;;;;;;;;;;;;;25.37;42.38;100363.41;4835373;29;124708;-74
2023/07/15 00:58:58;;;;;;;;;;;;;;;25.37;42.42;100366.13;4849535;28;122956;-74
2023/07/15 01:01:25;;;;;;;;;;;;;;;25.39;42.60;100358.66;4834233;29;114484;-74
2023/07/15 01:03:54;;;;;;;;;;;;;;;25.41;42.76;100362.03;4836129;29;114927;-74
2023/07/15 01:06:23;;;;;;;;;;;;;;;25.44;42.21;100371.66;4835576;29;123889;-74
2023/07/15 01:08:50;;;;;;;;;;;;;;;25.45;42.63;100374.19;4834953;29;123934;-74
2023/07/15 01:11:17;;;;;;;;;;;;;;;25.49;42.51;100373.84;4850305;28;113481;-75
2023/07/15 01:13:44;;;;;;;;;;;;;;;25.53;42.40;100378.72;4850125;28;113273;-74
2023/07/15 01:16:13;;;;;;;;;;;;;;;25.56;42.52;100377.53;4856615;28;123380;-74
2023/07/15 01:18:41;;;;;;;;;;;;;;;25.59;42.31;100378.00;4835233;29;124769;-74
2023/07/15 01:21:08;;;;;;;;;;;;;;;25.64;42.33;100372.06;4849402;28;114157;-74
2023/07/15 01:23:35;;;;;;;;;;;;;;;25.69;42.20;100369.63;4835602;29;114250;-74
2023/07/15 01:26:02;;;;;;;;;;;;;;;25.73;42.43;100364.69;4834365;29;124491;-74
2023/07/15 01:28:29;;;;;;;;;;;;;;;25.76;42.16;100369.78;4849454;28;123620;-75
2023/07/15 01:30:58;;;;;;;;;;;;;;;25.77;42.12;100372.31;4849691;28;113661;-74
2023/07/15 01:33:25;;;;;;;;;;;;;;;25.78;42.31;100368.56;4849381;28;114353;-75
2023/07/15 01:35:52;;;;;;;;;;;;;;;25.78;42.01;100363.13;4853994;28;123762;-74
2023/07/15 01:38:19;;;;;;;;;;;;;;;25.78;42.04;100368.56;4842026;29;122999;-74
2023/07/15 01:40:47;;;;;;;;;;;;;;;25.78;41.92;100363.13;4835978;28;113668;-75
2023/07/15 01:43:14;;;;;;;;;;;;;;;25.78;42.25;100363.13;4850308;28;113125;-74
2023/07/15 01:45:41;;;;;;;;;;;;;;;25.78;42.03;100363.13;4850012;28;123408;-75
2023/07/15 01:48:08;;;;;;;;;;;;;;;25.76;41.93;100359.75;4832962;29;123933;-75
2023/07/15 01:50:36;;;;;;;;;;;;;;;25.74;41.95;100364.53;4834674;29;115325;-75
2023/07/15 01:53:04;;;;;;;;;;;;;;;25.70;42.15;100360.50;4849358;28;114144;-75
2023/07/15 01:55:31;;;;;;;;;;;;;;;25.69;42.27;100353.38;4832945;29;124638;-75
2023/07/15 01:57:58;;;;;;;;;;;;;;;25.67;41.89;100355.41;4848822;28;124684;-74
2023/07/15 02:00:27;;;;;;;;;;;;;;;25.62;42.18;100358.69;4848854;28;113777;-75
2023/07/15 02:02:54;;;;;;;;;;;;;;;25.59;42.06;100352.78;4835052;29;114134;-74
2023/07/15 02:05:21;;;;;;;;;;;;;;;25.55;41.73;100362.28;4834701;29;124556;-75
2023/07/15 02:07:48;;;;;;;;;;;;;;;25.49;41.82;100357.59;4849193;28;123220;-75
2023/07/15 02:10:15;;;;;;;;;;;;;;;25.44;41.75;100360.81;4848717;28;114057;-74
2023/07/15 02:12:42;;;;;;;;;;;;;;;25.39;42.03;100358.66;4837039;29;112971;-74
2023/07/15 02:15:09;;;;;;;;;;;;;;;25.36;41.98;100363.59;4836631;29;124569;-74
2023/07/15 02:17:36;;;;;;;;;;;;;;;25.31;42.04;100366.81;4838264;29;125126;-74
2023/07/15 02:20:07;;;;;;;;;;;;;;;25.27;41.97;100370.91;4852300;28;115713;-74
2023/07/15 02:22:34;;;;;;;;;;;;;;;25.24;42.06;100372.13;4837247;29;113616;-74
2023/07/15 02:25:01;;;;;;;;;;;;;;;25.21;42.11;100371.59;4855816;28;124299;-74
2023/07/15 02:27:29;;;;;;;;;;;;;;;25.17;42.04;100365.66;4836979;29;123913;-75
2023/07/15 02:29:56;;;;;;;;;;;;;;;25.13;42.13;100379.72;4852046;29;114425;-74
2023/07/15 02:32:38;;;;;;;;;;;;;;;25.09;41.91;100367.56;4833020;29;114084;-75
2023/07/15 02:35:09;;;;;;;;;;;;;;;25.04;42.05;100371.66;4837425;29;124283;-74
2023/07/15 02:37:40;;;;;;;;;;;;;;;25.00;42.10;100381.16;4852461;28;123810;-75
2023/07/15 02:40:09;;;;;;;;;;;;;;;24.97;42.20;100376.06;4850310;28;114591;-74
2023/07/15 02:42:37;;;;;;;;;;;;;;;24.92;41.88;100375.78;4836752;29;114273;-75
2023/07/15 02:45:05;;;;;;;;;;;;;;;24.89;42.04;100373.41;4852626;28;123046;-74
2023/07/15 02:47:35;;;;;;;;;;;;;;;24.83;41.84;100374.09;4853628;28;122888;-74
2023/07/15 02:50:08;;;;;;;;;;;;;;;24.80;42.16;100369.03;4852797;28;114916;-75
2023/07/15 02:52:36;;;;;;;;;;;;;;;24.76;41.81;100378.50;4853326;28;113249;-75
2023/07/15 02:55:04;;;;;;;;;;;;;;;24.72;42.04;100379.88;4839245;29;125327;-74
2023/07/15 02:57:32;;;;;;;;;;;;;;;24.69;42.06;100378.34;4851351;28;125920;-75
2023/07/15 03:00:00;;;;;;;;;;;;;;;24.65;42.15;100377.00;4853302;28;114552;-74
2023/07/15 03:02:29;;;;;;;;;;;;;;;24.62;42.12;100383.63;4837250;29;113984;-74
2023/07/15 03:04:56;;;;;;;;;;;;;;;24.59;41.90;100378.53;4852128;28;125433;-75
2023/07/15 03:07:23;;;;;;;;;;;;;;;24.55;42.17;100389.91;4838246;29;124912;-74
2023/07/15 03:09:50;;;;;;;;;;;;;;;24.51;41.99;100383.94;4852264;28;113750;-75
2023/07/15 03:12:17;;;;;;;;;;;;;;;24.48;42.11;100376.16;4838538;29;113375;-75
2023/07/15 03:14:44;;;;;;;;;;;;;;;24.44;42.19;100380.22;4847268;29;125054;-75
2023/07/15 03:17:11;;;;;;;;;;;;;;;24.43;42.12;100378.53;4835877;29;123157;-75
2023/07/15 03:19:39;;;;;;;;;;;;;;;24.39;41.98;100377.19;4837719;28;114730;-75
2023/07/15 03:22:06;;;;;;;;;;;;;;;24.35;42.17;100379.38;4837158;29;113451;-74
2023/07/15 03:24:34;;;;;;;;;;;;;;;24.31;42.02;100366.38;4836320;29;124546;-74
2023/07/15 03:27:01;;;;;;;;;;;;;;;24.27;42.02;100369.41;4836540;29;124883;-75
2023/07/15 03:29:28;;;;;;;;;;;;;;;24.23;42.18;100368.06;4850683;28;114699;-75
2023/07/15 03:31:55;;;;;;;;;;;;;;;24.20;42.08;100378.38;4836277;29;114803;-75
2023/07/15 03:34:23;;;;;;;;;;;;;;;24.15;42.21;100372.63;4834831;29;123916;-75
2023/07/15 03:36:53;;;;;;;;;;;;;;;24.10;42.14;100390.22;4835948;29;124416;-75
2023/07/15 03:39:21;;;;;;;;;;;;;;;24.07;42.19;100378.88;4850505;28;113797;-74
2023/07/15 03:41:49;;;;;;;;;;;;;;;24.01;42.06;100379.56;4836187;29;114083;-75
2023/07/15 03:44:16;;;;;;;;;;;;;;;23.98;42.18;100382.59;4844403;28;123507;-75
2023/07/15 03:46:43;;;;;;;;;;;;;;;23.93;42.18;100387.69;4836502;29;124124;-75
2023/07/15 03:49:10;;;;;;;;;;;;;;;23.88;42.10;100375.50;4836771;29;114423;-74
2023/07/15 03:51:37;;;;;;;;;;;;;;;23.84;42.14;100374.13;4837265;29;113382;-75
2023/07/15 03:54:05;;;;;;;;;;;;;;;23.80;42.19;100380.88;4835238;29;123712;-75
2023/07/15 03:56:33;;;;;;;;;;;;;;;23.76;42.20;100376.78;4834426;29;125366;-74
2023/07/15 03:59:01;;;;;;;;;;;;;;;23.73;42.33;100382.53;4836013;29;114120;-74
2023/07/15 04:01:27;;;;;;;;;;;;;;;23.70;42.35;100382.88;4836216;29;112764;-75
2023/07/15 04:03:55;;;;;;;;;;;;;;;23.66;42.25;100381.53;4838955;29;124913;-75
2023/07/15 04:06:22;;;;;;;;;;;;;;;23.65;42.41;100385.22;4850287;28;123677;-75
2023/07/15 04:08:50;;;;;;;;;;;;;;;23.61;42.38;100383.88;4836243;29;114461;-75
2023/07/15 04:11:17;;;;;;;;;;;;;;;23.56;42.22;100380.81;4836413;29;114136;-75
2023/07/15 04:13:44;;;;;;;;;;;;;;;23.49;42.37;100386.88;4836183;29;123998;-74
2023/07/15 04:16:12;;;;;;;;;;;;;;;23.45;42.33;100385.53;4836483;29;124849;-75
2023/07/15 04:18:39;;;;;;;;;;;;;;;23.41;42.38;100389.53;4835830;29;115329;-74
2023/07/15 04:21:06;;;;;;;;;;;;;;;23.37;42.41;100388.19;4836646;29;114559;-75
2023/07/15 04:23:33;;;;;;;;;;;;;;;23.34;42.48;100393.94;4835396;29;124234;-75
2023/07/15 04:26:01;;;;;;;;;;;;;;;23.31;42.48;100386.13;4836235;29;124911;-75
2023/07/15 04:28:28;;;;;;;;;;;;;;;23.29;42.56;100393.56;4832589;29;114367;-75
2023/07/15 04:30:55;;;;;;;;;;;;;;;23.26;42.53;100391.19;4836234;29;114546;-75
2023/07/15 04:33:23;;;;;;;;;;;;;;;23.23;42.72;100386.13;4835601;29;124036;-75
2023/07/15 04:35:50;;;;;;;;;;;;;;;23.20;42.45;100391.84;4838059;29;124088;-75
2023/07/15 04:38:18;;;;;;;;;;;;;;;23.18;42.52;100385.75;4836394;29;114733;-75
2023/07/15 04:40:45;;;;;;;;;;;;;;;23.17;42.59;100386.75;4835719;29;113885;-75
2023/07/15 04:43:12;;;;;;;;;;;;;;;23.15;42.66;100389.63;4831629;29;124197;-74
2023/07/15 04:45:39;;;;;;;;;;;;;;;23.13;42.69;100397.91;4836251;29;123870;-74
2023/07/15 04:48:06;;;;;;;;;;;;;;;23.13;42.82;100397.91;4835854;29;114440;-75
2023/07/15 04:50:33;;;;;;;;;;;;;;;23.15;42.72;100399.56;4835954;29;114240;-74
2023/07/15 04:53:00;;;;;;;;;;;;;;;23.18;42.68;100399.25;4838396;29;124464;-75
2023/07/15 04:55:27;;;;;;;;;;;;;;;23.22;42.79;100400.63;4834964;29;123292;-74
2023/07/15 04:57:54;;;;;;;;;;;;;;;23.29;43.17;100402.50;4849715;28;114660;-75
2023/07/15 05:00:21;;;;;;;;;;;;;;;23.38;43.10;100406.09;4836201;29;114488;-74
2023/07/15 05:02:49;;;;;;;;;;;;;;;23.46;43.19;100403.41;4835673;29;124236;-75
2023/07/15 05:05:16;;;;;;;;;;;;;;;23.55;43.11;100400.75;4835975;29;124879;-74
2023/07/15 05:07:43;;;;;;;;;;;;;;;23.63;43.25;100395.34;4849644;28;115214;-74
2023/07/15 05:10:24;;;;;;;;;;;;;;;23.70;43.10;100404.50;4835368;29;114848;-75
2023/07/15 05:12:51;;;;;;;;;;;;;;;23.75;42.93;100407.53;4835625;29;124067;-75
2023/07/15 05:15:18;;;;;;;;;;;;;;;23.81;42.98;100406.06;4849707;28;123431;-75
2023/07/15 05:17:45;;;;;;;;;;;;;;;23.84;42.99;100395.75;4835593;29;114672;-75
2023/07/15 05:20:18;;;;;;;;;;;;;;;23.89;43.06;100403.38;4832582;29;113952;-75
2023/07/15 05:22:45;;;;;;;;;;;;;;;23.94;42.82;100406.44;4849614;29;125770;-74
2023/07/15 05:25:14;;;;;;;;;;;;;;;23.99;42.91;100403.22;4850101;28;123511;-75
2023/07/15 05:27:42;;;;;;;;;;;;;;;24.03;42.84;100410.00;4834334;29;114667;-75
2023/07/15 05:30:09;;;;;;;;;;;;;;;24.07;42.95;100400.53;4848066;28;113119;-75
2023/07/15 05:32:37;;;;;;;;;;;;;;;24.13;42.74;100397.16;4834428;29;124352;-75
2023/07/15 05:35:04;;;;;;;;;;;;;;;24.19;42.67;100391.06;4834701;29;124020;-74
2023/07/15 05:37:31;;;;;;;;;;;;;;;24.23;42.77;100395.13;4850101;28;114830;-75
2023/07/15 05:39:58;;;;;;;;;;;;;;;24.29;42.68;100386.31;4834428;29;113942;-75
2023/07/15 05:42:25;;;;;;;;;;;;;;;24.36;42.62;100388.38;4844096;29;124135;-75
2023/07/15 05:44:52;;;;;;;;;;;;;;;24.42;42.61;100393.94;4835726;29;124101;-75
2023/07/15 05:47:19;;;;;;;;;;;;;;;24.48;42.84;100395.09;4835865;29;114670;-75
2023/07/15 05:49:47;;;;;;;;;;;;;;;24.55;42.64;100398.84;4853132;28;114480;-74
2023/07/15 05:52:14;;;;;;;;;;;;;;;24.60;42.62;100401.91;4838219;28;124752;-74
2023/07/15 05:54:41;;;;;;;;;;;;;;;24.67;42.88;100402.88;4834671;29;123850;-75
2023/07/15 05:57:08;;;;;;;;;;;;;;;24.74;42.58;100404.94;4842546;29;116248;-75
2023/07/15 05:59:35;;;;;;;;;;;;;;;24.80;42.62;100412.34;4837224;29;114967;-75
2023/07/15 06:02:02;;;;;;;;;;;;;;;24.86;42.75;100412.53;4836887;29;124755;-74
2023/07/15 06:04:59;;;;;;;;;;;;;;;24.92;42.62;100400.16;4845007;29;124059;-75
2023/07/15 06:07:50;;;;;;;;;;;;;;;25.00;42.55;100402.00;4857805;28;114602;-75
2023/07/15 06:10:17;;;;;;;;;;;;;;;25.06;42.70;100412.97;4837917;29;113836;-74
2023/07/15 06:12:44;;;;;;;;;;;;;;;25.15;42.89;100418.38;4853891;28;123565;-74
2023/07/15 06:15:28;;;;;;;;;;;;;;;25.23;42.80;100412.94;4850778;29;125071;-74
2023/07/15 06:17:57;;;;;;;;;;;;;;;25.31;42.43;100410.19;4837863;29;113713;-74
2023/07/15 06:20:24;;;;;;;;;;;;;;;25.39;42.70;100407.47;4837773;29;114124;-74
2023/07/15 06:22:51;;;;;;;;;;;;;;;25.47;42.58;100408.41;4837141;29;123353;-75
2023/07/15 06:25:18;;;;;;;;;;;;;;;25.55;42.58;100416.53;4837860;29;123859;-75
2023/07/15 06:27:45;;;;;;;;;;;;;;;25.64;42.57;100423.59;4838038;29;114177;-75
2023/07/15 06:30:12;;;;;;;;;;;;;;;25.73;42.60;100425.25;4852519;28;114847;-75
2023/07/15 06:32:39;;;;;;;;;;;;;;;25.83;42.94;100420.44;4833887;29;124446;-74
2023/07/15 06:35:06;;;;;;;;;;;;;;;25.94;42.58;100415.66;4828259;29;124605;-73
2023/07/15 06:37:35;;;;;;;;;;;;;;;26.05;42.54;100423.38;4840650;28;113925;-74
2023/07/15 06:40:03;;;;;;;;;;;;;;;26.17;42.57;100431.94;4845234;28;113342;-74
2023/07/15 06:42:30;;;;;;;;;;;;;;;26.30;42.58;100425.91;4835711;29;124343;-74
2023/07/15 06:44:57;;;;;;;;;;;;;;;26.45;42.86;100418.63;4850146;28;124346;-74
2023/07/15 06:47:25;;;;;;;;;;;;;;;26.56;42.35;100415.47;4836050;29;115260;-75
2023/07/15 06:49:52;;;;;;;;;;;;;;;26.69;42.70;100416.75;4836342;29;115983;-74
2023/07/15 06:52:18;;;;;;;;;;;;;;;26.77;42.42;100416.66;4847500;28;124094;-74
2023/07/15 06:54:45;;;;;;;;;;;;;;;26.84;42.45;100423.03;4835765;29;124973;-74
2023/07/15 06:57:12;;;;;;;;;;;;;;;26.89;42.59;100431.47;4851984;28;113502;-75
2023/07/15 06:59:41;;;;;;;;;;;;;;;26.95;42.25;100425.28;4837309;29;114094;-74
2023/07/15 07:02:08;;;;;;;;;;;;;;;27.03;42.37;100420.78;4850993;28;124704;-74
2023/07/15 07:04:35;;;;;;;;;;;;;;;27.14;42.57;100423.03;4837812;29;123463;-75
2023/07/15 07:07:02;;;;;;;;;;;;;;;27.28;42.31;100419.50;4837426;29;115823;-75
2023/07/15 07:09:29;;;;;;;;;;;;;;;27.42;42.55;100417.78;4838761;29;113596;-74
2023/07/15 07:11:55;;;;;;;;;;;;;;;27.53;42.53;100421.91;4836179;29;125473;-74
2023/07/15 07:14:22;;;;;;;;;;;;;;;27.61;42.29;100427.22;4837435;29;125100;-75
2023/07/15 07:16:49;;;;;;;;;;;;;;;27.69;42.60;100418.97;4852873;28;114160;-74
2023/07/15 07:19:16;;;;;;;;;;;;;;;27.76;42.05;100419.91;4840612;29;113945;-75
2023/07/15 07:21:43;;;;;;;;;;;;;;;27.84;42.05;100412.63;4838663;29;123216;-72
2023/07/15 07:24:10;;;;;;;;;;;;;;;27.88;42.32;100419.41;4839157;29;124107;-72
2023/07/15 07:26:37;;;;;;;;;;;;;;;27.92;42.35;100426.16;4837320;29;113743;-71
2023/07/15 07:29:04;;;;;;;;;;;;;;;27.96;42.42;100422.00;4852258;28;113232;-72
2023/07/15 07:31:31;;;;;;;;;;;;;;;28.02;42.50;100426.69;4836927;29;124373;-72
2023/07/15 07:33:58;;;;;;;;;;;;;;;28.09;42.36;100426.75;4837131;29;125108;-72
2023/07/15 07:36:25;;;;;;;;;;;;;;;28.18;42.27;100430.16;4850990;28;115271;-72
2023/07/15 07:38:52;;;;;;;;;;;;;;;28.26;42.22;100430.91;4837164;29;114886;-73
2023/07/15 07:41:19;;;;;;;;;;;;;;;28.36;42.33;100436.00;4835700;29;123625;-73
2023/07/15 07:43:46;;;;;;;;;;;;;;;28.49;42.49;100436.13;4833113;29;124567;-73
2023/07/15 07:46:13;;;;;;;;;;;;;;;28.63;42.46;100430.81;4837195;29;115019;-73
2023/07/15 07:48:40;;;;;;;;;;;;;;;28.78;42.51;100437.00;4836748;29;113958;-74
2023/07/15 07:51:07;;;;;;;;;;;;;;;28.92;42.21;100438.78;4836949;29;124155;-73
2023/07/15 07:53:34;;;;;;;;;;;;;;;29.00;42.12;100439.69;4835751;29;123823;-73
2023/07/15 07:56:01;;;;;;;;;;;;;;;29.04;42.10;100435.50;4851098;28;114547;-73
2023/07/15 07:58:28;;;;;;;;;;;;;;;29.06;41.96;100427.97;4837029;29;113992;-72
2023/07/15 08:00:55;;;;;;;;;;;;;;;29.05;41.84;100431.75;4835204;29;124425;-73
2023/07/15 08:03:22;;;;;;;;;;;;;;;29.03;41.88;100422.94;4836744;29;123777;-73
2023/07/15 08:05:50;;;;;;;;;;;;;;;29.03;42.10;100431.09;4836800;29;114301;-73
2023/07/15 08:08:17;;;;;;;;;;;;;;;29.08;42.17;100437.63;4837418;29;113602;-73
2023/07/15 08:10:44;;;;;;;;;;;;;;;29.16;42.17;100439.41;4835641;29;124866;-73
2023/07/15 08:13:11;;;;;;;;;;;;;;;29.23;42.07;100434.78;4836392;29;124130;-73
2023/07/15 08:15:38;;;;;;;;;;;;;;;29.26;42.03;100434.41;4836533;29;114534;-72
2023/07/15 08:18:06;;;;;;;;;;;;;;;29.28;42.00;100421.41;4851289;28;115051;-73
2023/07/15 08:20:34;;;;;;;;;;;;;;;29.29;41.92;100439.47;4849982;28;124331;-73
2023/07/15 08:23:01;;;;;;;;;;;;;;;29.28;42.10;100451.41;4850706;28;124603;-73
2023/07/15 08:25:28;;;;;;;;;;;;;;;29.29;41.91;100450.38;4847586;28;114397;-73
2023/07/15 08:27:55;;;;;;;;;;;;;;;29.35;42.04;100447.84;4850323;28;114833;-73
2023/07/15 08:30:22;;;;;;;;;;;;;;;29.39;41.93;100443.72;4835050;29;124329;-73
2023/07/15 08:32:49;;;;;;;;;;;;;;;29.48;42.23;100453.41;4836139;29;124654;-73
2023/07/15 08:35:16;;;;;;;;;;;;;;;29.53;42.13;100445.44;4836467;29;113759;-73
2023/07/15 08:37:43;;;;;;;;;;;;;;;29.59;42.19;100455.56;4836443;29;113938;-73
2023/07/15 08:40:11;;;;;;;;;;;;;;;29.72;42.26;100459.38;4835649;29;124969;-73
2023/07/15 08:42:39;;;;;;;;;;;;;;;29.83;42.21;100461.53;4836090;29;123936;-73
2023/07/15 08:45:06;;;;;;;;;;;;;;;29.92;41.99;100463.03;4836039;29;114367;-73
2023/07/15 08:47:33;;;;;;;;;;;;;;;29.97;42.24;100474.19;4850832;28;112828;-73
2023/07/15 08:50:02;;;;;;;;;;;;;;;29.97;41.75;100466.00;4835250;29;123703;-73
2023/07/15 08:52:30;;;;;;;;;;;;;;;29.99;42.11;100458.44;4835034;29;123527;-73
2023/07/15 08:54:58;;;;;;;;;;;;;;;30.01;42.06;100463.69;4858173;28;114441;-73
2023/07/15 08:57:26;;;;;;;;;;;;;;;30.03;41.87;100473.34;4850850;28;113453;-73
2023/07/15 08:59:54;;;;;;;;;;;;;;;30.04;41.81;100475.03;4837361;29;124368;-73
2023/07/15 09:02:22;;;;;;;;;;;;;;;30.04;41.77;100491.41;4830500;29;124736;-73
2023/07/15 09:04:49;;;;;;;;;;;;;;;30.01;41.68;100485.53;4837321;29;114469;-72
2023/07/15 09:07:24;;;;;;;;;;;;;;;29.98;41.85;100491.41;4838051;29;113876;-73
2023/07/15 09:09:51;;;;;;;;;;;;;;;29.94;41.69;100490.97;4826040;29;124244;-73
2023/07/15 09:12:22;;;;;;;;;;;;;;;29.88;41.91;100491.81;4828541;29;124895;-73
2023/07/15 09:14:51;;;;;;;;;;;;;;;29.83;41.62;100506.06;4828297;29;115584;-74
2023/07/15 09:17:21;;;;;;;;;;;;;;;29.77;41.61;100516.97;4826990;29;114974;-74
2023/07/15 09:19:48;;;;;;;;;;;;;;;29.72;41.74;100524.88;4826663;29;124516;-74
2023/07/15 09:22:16;;;;;;;;;;;;;;;29.66;41.80;100521.91;4833823;29;122201;-74
2023/07/15 09:24:44;;;;;;;;;;;;;;;29.57;41.57;100527.75;4837715;29;114763;-74
2023/07/15 09:27:11;;;;;;;;;;;;;;;29.51;41.67;100523.94;4842734;29;113729;-74
2023/07/15 09:29:39;;;;;;;;;;;;;;;29.41;41.57;100534.38;4843586;29;124304;-74
2023/07/15 09:32:08;;;;;;;;;;;;;;;29.29;41.75;100526.75;4851473;28;125077;-74
2023/07/15 09:34:49;;;;;;;;;;;;;;;29.21;41.86;100521.44;4854915;28;114955;-74
2023/07/15 09:37:26;;;;;;;;;;;;;;;29.11;41.76;100501.84;4835182;29;112506;-74
2023/07/15 09:39:58;;;;;;;;;;;;;;;29.06;41.93;100493.41;4834228;29;124213;-74
2023/07/15 09:42:27;;;;;;;;;;;;;;;29.01;41.70;100490.41;4843439;29;124172;-74
2023/07/15 09:44:55;;;;;;;;;;;;;;;28.97;42.01;100500.03;4854167;29;113489;-74
2023/07/15 09:47:23;;;;;;;;;;;;;;;28.93;41.77;100505.91;4837354;29;112918;-75
2023/07/15 09:49:50;;;;;;;;;;;;;;;28.91;41.80;100518.91;4838138;29;124642;-75
2023/07/15 09:52:17;;;;;;;;;;;;;;;28.90;41.84;100517.22;4837611;29;124274;-75
2023/07/15 09:54:44;;;;;;;;;;;;;;;28.88;42.03;100519.28;4836643;29;114282;-74
2023/07/15 09:57:14;;;;;;;;;;;;;;;28.84;41.96;100528.03;4837272;29;113866;-74
2023/07/15 09:59:46;;;;;;;;;;;;;;;28.76;41.77;100520.84;4850125;28;124113;-74
2023/07/15 10:02:31;;;;;;;;;;;;;;;28.69;41.83;100526.25;4832800;29;123970;-74
2023/07/15 10:05:03;;;;;;;;;;;;;;;28.62;41.86;100519.06;4834661;29;115895;-74
2023/07/15 10:07:30;;;;;;;;;;;;;;;28.60;42.00;100518.44;4834944;29;114177;-74
2023/07/15 10:09:58;;;;;;;;;;;;;;;28.60;42.19;100527.44;4833363;29;124512;-74
2023/07/15 10:12:26;;;;;;;;;;;;;;;28.62;42.06;100535.41;4835709;29;124525;-74
2023/07/15 10:14:53;;;;;;;;;;;;;;;28.64;42.19;100538.78;4834086;29;114148;-74
2023/07/15 10:17:20;;;;;;;;;;;;;;;28.67;42.12;100549.28;4849719;28;113469;-74
2023/07/15 10:19:49;;;;;;;;;;;;;;;28.68;42.12;100537.34;4836451;29;124449;-74
2023/07/15 10:22:21;;;;;;;;;;;;;;;28.69;42.14;100536.31;4852984;28;123530;-74
2023/07/15 10:24:55;;;;;;;;;;;;;;;28.70;42.09;100532.53;4835061;29;114874;-74
2023/07/15 10:27:26;;;;;;;;;;;;;;;28.72;42.01;100530.47;4850164;29;111366;-74
2023/07/15 10:30:12;;;;;;;;;;;;;;;28.74;42.10;100517.47;4850388;28;123620;-74
2023/07/15 10:33:03;;;;;;;;;;;;;;;28.73;42.12;100510.34;4834205;29;123090;-74
2023/07/15 10:35:31;;;;;;;;;;;;;;;28.75;42.10;100507.44;4840602;29;114656;-74
2023/07/15 10:38:01;;;;;;;;;;;;;;;28.72;42.22;100503.22;4855182;28;112081;-74
2023/07/15 10:40:49;;;;;;;;;;;;;;;28.68;41.86;100491.84;4837802;28;124082;-74
2023/07/15 10:43:16;;;;;;;;;;;;;;;28.63;41.82;100493.47;4839382;29;124652;-74
2023/07/15 10:45:47;;;;;;;;;;;;;;;28.58;41.83;100479.63;4850850;28;114428;-74
2023/07/15 10:48:14;;;;;;;;;;;;;;;28.49;42.09;100477.00;4839323;29;113172;-74
2023/07/15 10:50:41;;;;;;;;;;;;;;;28.42;41.95;100503.31;4839165;29;124389;-75
2023/07/15 10:53:22;;;;;;;;;;;;;;;28.35;41.94;100497.00;4839377;29;124475;-74
2023/07/15 10:55:56;;;;;;;;;;;;;;;28.31;42.11;100490.22;4836818;29;115039;-74
2023/07/15 10:58:24;;;;;;;;;;;;;;;28.30;42.18;100494.84;4830871;29;115389;-74
2023/07/15 11:00:57;;;;;;;;;;;;;;;28.30;42.18;100494.84;4851996;28;124734;-74
2023/07/15 11:03:24;;;;;;;;;;;;;;;28.31;42.30;100512.00;4835290;29;123831;-74
2023/07/15 11:05:51;;;;;;;;;;;;;;;28.32;42.24;100519.16;4837990;29;114517;-75
2023/07/15 11:08:19;;;;;;;;;;;;;;;28.31;42.07;100514.72;4839402;29;113463;-74
2023/07/15 11:10:47;;;;;;;;;;;;;;;28.28;42.13;100506.97;4838299;29;124755;-74
2023/07/15 11:13:14;;;;;;;;;;;;;;;28.23;42.11;100514.88;4837611;29;125333;-74
2023/07/15 11:15:45;;;;;;;;;;;;;;;28.22;42.29;100524.06;4852315;28;113409;-74
2023/07/15 11:18:19;;;;;;;;;;;;;;;28.14;42.18;100520.44;4839829;29;114045;-74
2023/07/15 11:20:48;;;;;;;;;;;;;;;28.07;42.41;100524.13;4848305;28;124941;-74
2023/07/15 11:23:15;;;;;;;;;;;;;;;28.02;42.16;100527.41;4850916;28;123925;-75
2023/07/15 11:25:43;;;;;;;;;;;;;;;27.96;42.34;100520.03;4837528;29;115295;-74
2023/07/15 11:28:11;;;;;;;;;;;;;;;27.92;42.35;100513.28;4837366;29;114081;-74
2023/07/15 11:30:39;;;;;;;;;;;;;;;27.90;42.50;100509.91;4851218;28;123368;-74
2023/07/15 11:33:06;;;;;;;;;;;;;;;27.87;42.32;100515.69;4836555;29;124217;-75
2023/07/15 11:35:34;;;;;;;;;;;;;;;27.83;42.45;100525.28;4837275;29;114614;-74
2023/07/15 11:38:07;;;;;;;;;;;;;;;27.75;42.31;100508.00;4837871;29;113604;-74
2023/07/15 11:40:35;;;;;;;;;;;;;;;27.72;42.65;100502.94;4836156;29;124134;-75
2023/07/15 11:43:04;;;;;;;;;;;;;;;27.69;42.30;100492.44;4836175;29;126293;-74
2023/07/15 11:45:34;;;;;;;;;;;;;;;27.68;42.35;100487.19;4836531;29;115267;-75
2023/07/15 11:48:01;;;;;;;;;;;;;;;27.66;42.74;100487.38;4835424;29;112545;-75
2023/07/15 11:50:28;;;;;;;;;;;;;;;27.67;42.80;100482.78;4836642;29;124189;-75
2023/07/15 11:52:56;;;;;;;;;;;;;;;27.67;42.72;100489.06;4836130;29;124691;-75
2023/07/15 11:55:26;;;;;;;;;;;;;;;27.67;42.72;100478.19;4834223;29;114665;-75
2023/07/15 11:57:53;;;;;;;;;;;;;;;27.71;42.59;100482.22;4834506;29;113844;-74
2023/07/15 12:00:25;;;;;;;;;;;;;;;27.76;43.07;100487.94;4833481;29;124889;-75
2023/07/15 12:03:11;;;;;;;;;;;;;;;27.81;42.83;100472.91;4833121;29;124286;-75
2023/07/15 12:05:38;;;;;;;;;;;;;;;27.86;42.76;100470.44;4835942;29;114410;-74
2023/07/15 12:08:12;;;;;;;;;;;;;;;27.92;42.94;100467.84;4840853;29;97372;-74
2023/07/15 12:10:50;;;;;;;;;;;;;;;28.00;43.07;100466.88;4833431;29;123985;-75
2023/07/15 12:13:17;;;;;;;;;;;;;;;28.09;43.06;100465.72;4834216;28;123588;-75
2023/07/15 12:15:44;;;;;;;;;;;;;;;28.22;43.29;100475.03;4835978;29;114872;-74
2023/07/15 12:18:11;;;;;;;;;;;;;;;28.31;43.16;100454.81;4836811;29;113800;-74
2023/07/15 12:20:38;;;;;;;;;;;;;;;28.40;43.01;100456.38;4835529;29;124433;-74
2023/07/15 12:23:08;;;;;;;;;;;;;;;28.57;43.03;100453.41;4836353;29;123782;-74
2023/07/15 12:25:35;;;;;;;;;;;;;;;28.73;43.28;100434.03;4836307;29;114154;-75
2023/07/15 12:28:02;;;;;;;;;;;;;;;28.88;43.08;100437.50;4841594;29;114069;-75
2023/07/15 12:30:29;;;;;;;;;;;;;;;29.04;43.20;100430.03;4835704;29;123887;-75
2023/07/15 12:32:56;;;;;;;;;;;;;;;29.21;42.95;100436.88;4833517;29;124206;-75
2023/07/15 12:35:23;;;;;;;;;;;;;;;29.35;42.89;100445.13;4834854;29;115116;-75